Time;durP1;ratioP1;P1;durP2;ratioP2;P2;SDS_P1;SDS_P2;PMS_P1;PMS_P2;Temp;Humidity;BMP_temperature;BMP_pressure;BME280_temperature;BME280_humidity;BME280_pressure;Samples;Min_cycle;Max_cycle;Signal;HPM_P1;HPM_P2
2021/07/23 00:01:32;;;;;;;10.05;3.45;;;;;;;18.02;86.49;100731.66;1752068;80;20861;-60
2021/07/23 00:03:59;;;;;;;7.20;3.40;;;;;;;17.99;86.49;100734.55;1720241;82;20946;-59
2021/07/23 00:06:26;;;;;;;13.15;3.77;;;;;;;17.97;86.67;100729.70;1772859;79;21391;-59
2021/07/23 00:08:54;;;;;;;6.78;3.70;;;;;;;17.95;86.78;100735.22;1780479;79;20985;-58
2021/07/23 00:11:21;;;;;;;4.83;3.02;;;;;;;17.93;86.85;100727.67;1781500;79;21758;-59
2021/07/23 00:13:48;;;;;;;10.15;3.47;;;;;;;17.88;87.11;100733.39;1785596;79;20874;-58
2021/07/23 00:16:15;;;;;;;9.85;3.10;;;;;;;17.86;87.41;100738.56;1775614;79;21059;-60
2021/07/23 00:18:42;;;;;;;9.23;3.47;;;;;;;17.82;87.66;100735.67;1777471;79;21480;-58
2021/07/23 00:21:09;;;;;;;14.65;3.80;;;;;;;17.76;87.80;100735.08;1774193;79;21294;-60
2021/07/23 00:23:37;;;;;;;10.95;3.02;;;;;;;17.72;87.85;100735.40;1745622;80;21124;-60
2021/07/23 00:26:12;;;;;;;7.45;3.58;;;;;;;17.69;88.07;100735.61;1721895;82;21010;-58
2021/07/23 00:28:40;;;;;;;12.37;3.92;;;;;;;17.66;88.22;100738.02;1725617;81;21640;-60
2021/07/23 00:31:07;;;;;;;12.80;3.85;;;;;;;17.63;88.29;100736.87;1733418;82;20882;-60
2021/07/23 00:33:35;;;;;;;10.45;3.33;;;;;;;17.60;88.43;100731.66;1734339;82;21514;-58
2021/07/23 00:36:04;;;;;;;9.05;3.55;;;;;;;17.56;88.80;100735.03;1725281;82;20938;-60
2021/07/23 00:38:32;;;;;;;15.78;3.83;;;;;;;17.51;88.78;100728.16;1716042;82;20910;-58
2021/07/23 00:40:59;;;;;;;13.88;4.30;;;;;;;17.45;89.10;100730.31;1770563;79;20933;-60
2021/07/23 00:43:25;;;;;;;9.20;3.15;;;;;;;17.41;89.34;100730.12;1772813;79;21332;-60
2021/07/23 00:45:54;;;;;;;11.48;3.60;;;;;;;17.40;89.74;100739.23;1776037;79;20965;-60
2021/07/23 00:48:21;;;;;;;10.98;3.35;;;;;;;17.39;89.93;100732.06;1773211;79;21400;-59
2021/07/23 00:50:49;;;;;;;15.63;3.77;;;;;;;17.36;89.89;100736.33;1767811;79;20965;-60
2021/07/23 00:53:16;;;;;;;17.85;3.37;;;;;;;17.33;90.00;100739.21;1769884;79;20896;-60
2021/07/23 00:55:53;;;;;;;12.73;3.65;;;;;;;17.29;90.18;100739.02;1776617;79;21497;-60
2021/07/23 00:58:25;;;;;;;10.13;4.03;;;;;;;17.24;90.44;100735.75;1777731;79;20984;-61
2021/07/23 01:00:54;;;;;;;8.45;3.80;;;;;;;17.20;90.68;100724.73;1755115;79;21091;-59
2021/07/23 01:03:23;;;;;;;8.73;4.05;;;;;;;17.17;90.85;100729.38;1764924;79;21025;-59
2021/07/23 01:05:51;;;;;;;11.03;4.03;;;;;;;17.15;90.79;100732.66;1768249;79;21836;-58
2021/07/23 01:08:18;;;;;;;7.92;3.80;;;;;;;17.14;91.13;100732.75;1776745;79;20956;-59
2021/07/23 01:10:47;;;;;;;8.50;3.72;;;;;;;17.11;91.17;100729.73;1767325;79;20969;-59
2021/07/23 01:13:18;;;;;;;9.73;3.67;;;;;;;17.08;91.41;100734.00;1770876;79;22087;-59
2021/07/23 01:15:46;;;;;;;20.90;3.55;;;;;;;17.05;91.77;100736.90;1779486;79;21577;-59
2021/07/23 01:18:13;;;;;;;9.43;3.60;;;;;;;17.02;91.95;100737.09;1767241;79;20953;-58
2021/07/23 01:20:41;;;;;;;8.93;3.90;;;;;;;16.99;92.03;100735.94;1773594;79;21404;-59
2021/07/23 01:23:08;;;;;;;8.80;3.70;;;;;;;16.98;92.03;100740.94;1756196;81;20945;-60
2021/07/23 01:25:36;;;;;;;8.20;3.60;;;;;;;16.97;92.17;100736.48;1777861;79;21809;-58
2021/07/23 01:28:04;;;;;;;6.83;3.83;;;;;;;16.94;92.32;100729.41;1732707;79;21302;-58
2021/07/23 01:30:35;;;;;;;9.98;3.72;;;;;;;16.93;92.23;100737.65;1782702;79;21368;-59
2021/07/23 01:33:10;;;;;;;12.37;3.80;;;;;;;16.94;92.24;100731.27;1768603;79;21074;-58
2021/07/23 01:35:37;;;;;;;10.00;4.10;;;;;;;16.93;92.03;100737.65;1769962;79;21060;-59
2021/07/23 01:38:05;;;;;;;8.10;4.10;;;;;;;16.92;91.91;100734.56;1771297;79;21113;-57
2021/07/23 01:40:33;;;;;;;9.48;4.37;;;;;;;16.90;91.86;100738.20;1764833;79;21421;-58
2021/07/23 01:43:00;;;;;;;12.07;4.10;;;;;;;16.89;91.82;100737.81;1773908;79;21335;-58
2021/07/23 01:45:27;;;;;;;9.85;4.22;;;;;;;16.87;91.69;100736.19;1749570;79;20957;-58
2021/07/23 01:48:12;;;;;;;12.58;4.12;;;;;;;16.82;91.67;100737.81;1773961;79;20948;-60
2021/07/23 01:50:40;;;;;;;16.97;4.30;;;;;;;16.80;91.84;100744.28;1778502;79;21344;-58
2021/07/23 01:53:07;;;;;;;12.03;4.45;;;;;;;16.80;92.04;100744.28;1775552;79;21419;-59
2021/07/23 01:55:36;;;;;;;11.75;3.87;;;;;;;16.79;92.03;100741.19;1777711;79;20934;-59
2021/07/23 01:58:04;;;;;;;7.37;3.98;;;;;;;16.76;91.93;100749.03;1779097;79;20996;-58
2021/07/23 02:00:33;;;;;;;11.45;4.20;;;;;;;16.75;92.04;100740.52;1778863;78;21007;-58
2021/07/23 02:03:03;;;;;;;5.42;3.92;;;;;;;16.75;92.02;100740.02;1776895;79;21812;-59
2021/07/23 02:05:32;;;;;;;8.98;3.98;;;;;;;16.77;92.05;100742.65;1771799;79;21044;-59
2021/07/23 02:08:00;;;;;;;14.43;3.80;;;;;;;16.77;92.10;100741.30;1778813;79;22183;-60
2021/07/23 02:10:28;;;;;;;9.00;3.72;;;;;;;16.75;91.98;100741.38;1778515;79;21465;-58
2021/07/23 02:12:56;;;;;;;13.70;3.77;;;;;;;16.75;92.08;100740.52;1782644;79;21008;-58
2021/07/23 02:15:25;;;;;;;11.75;3.70;;;;;;;16.74;92.01;100745.55;1782904;79;21446;-59
2021/07/23 02:17:52;;;;;;;12.35;3.67;;;;;;;16.72;91.99;100746.13;1778703;79;20938;-58
2021/07/23 02:20:21;;;;;;;10.95;3.92;;;;;;;16.70;91.85;100748.91;1780973;79;21012;-58
2021/07/23 02:22:50;;;;;;;12.68;3.70;;;;;;;16.70;91.52;100748.06;1779852;79;20902;-58
2021/07/23 02:25:19;;;;;;;15.30;4.00;;;;;;;16.69;91.31;100747.64;1782558;78;21044;-58
2021/07/23 02:27:49;;;;;;;5.65;3.20;;;;;;;16.69;91.11;100747.17;1776740;79;20988;-58
2021/07/23 02:30:17;;;;;;;9.73;3.72;;;;;;;16.68;90.93;100748.61;1773462;79;21048;-58
2021/07/23 02:32:47;;;;;;;12.93;3.67;;;;;;;16.68;90.92;100756.73;1775762;79;21489;-59
2021/07/23 02:35:15;;;;;;;11.22;3.92;;;;;;;16.67;90.88;100753.63;1776423;79;22072;-58
2021/07/23 02:37:53;;;;;;;11.68;3.62;;;;;;;16.66;90.81;100760.90;1788208;79;20945;-58
2021/07/23 02:40:21;;;;;;;13.30;3.92;;;;;;;16.66;90.65;100762.72;1785436;78;21422;-59
2021/07/23 02:42:53;;;;;;;9.33;3.40;;;;;;;16.65;90.49;100759.16;1774924;79;20915;-59
2021/07/23 02:45:20;;;;;;;7.78;3.27;;;;;;;16.64;90.50;100761.94;1775980;79;20913;-58
2021/07/23 02:47:48;;;;;;;11.08;3.58;;;;;;;16.67;90.25;100759.05;1779865;79;20937;-59
2021/07/23 02:50:15;;;;;;;11.63;3.55;;;;;;;16.70;89.84;100762.95;1762330;78;21036;-59
2021/07/23 02:52:44;;;;;;;8.10;3.77;;;;;;;16.73;89.47;100762.26;1773185;79;21299;-61
2021/07/23 02:55:11;;;;;;;9.45;4.25;;;;;;;16.74;88.92;100764.50;1779663;79;21311;-60
2021/07/23 02:57:39;;;;;;;12.53;3.77;;;;;;;16.76;88.35;100763.92;1779312;79;21052;-59
2021/07/23 03:00:07;;;;;;;15.48;4.12;;;;;;;16.78;88.29;100761.98;1779261;79;20981;-59
2021/07/23 03:02:36;;;;;;;10.43;3.95;;;;;;;16.81;88.08;100769.06;1781165;78;20930;-59
2021/07/23 03:05:04;;;;;;;15.53;4.28;;;;;;;16.81;87.99;100767.21;1738659;81;21108;-58
2021/07/23 03:07:32;;;;;;;12.03;4.37;;;;;;;16.83;88.16;100763.07;1736460;80;21071;-58
2021/07/23 03:10:00;;;;;;;18.65;4.35;;;;;;;16.87;88.23;100765.97;1728213;80;21449;-60
2021/07/23 03:12:27;;;;;;;11.22;4.22;;;;;;;16.90;87.80;100773.41;1694260;82;21571;-59
2021/07/23 03:14:55;;;;;;;11.18;3.92;;;;;;;16.94;87.74;100765.12;1722822;82;21020;-59
2021/07/23 03:17:24;;;;;;;10.65;4.25;;;;;;;16.98;87.37;100769.37;1733070;81;21969;-59
2021/07/23 03:19:53;;;;;;;11.03;4.45;;;;;;;17.00;87.41;100767.47;1782940;79;21434;-59
2021/07/23 03:22:20;;;;;;;9.20;4.22;;;;;;;17.06;87.27;100771.14;1784502;79;20859;-59
2021/07/23 03:24:49;;;;;;;11.93;4.45;;;;;;;17.11;86.98;100773.08;1778771;79;21453;-58
2021/07/23 03:27:18;;;;;;;9.70;4.03;;;;;;;17.18;86.82;100775.81;1771725;79;20949;-59
2021/07/23 03:29:46;;;;;;;9.88;4.00;;;;;;;17.23;86.18;100775.50;1787580;79;21819;-58
2021/07/23 03:32:14;;;;;;;10.40;4.22;;;;;;;17.26;86.15;100778.52;1782927;79;21355;-59
2021/07/23 03:34:41;;;;;;;9.85;4.30;;;;;;;17.30;85.90;100778.70;1786513;79;21454;-60
2021/07/23 03:37:22;;;;;;;10.05;4.10;;;;;;;17.35;85.77;100779.27;1785762;79;20953;-58
2021/07/23 03:39:51;;;;;;;7.72;4.42;;;;;;;17.44;85.53;100780.53;1723661;80;20887;-61
2021/07/23 03:42:19;;;;;;;8.90;4.15;;;;;;;17.51;85.16;100783.73;1720073;82;21082;-59
2021/07/23 03:44:48;;;;;;;12.95;4.37;;;;;;;17.55;84.55;100786.63;1717242;83;20966;-59
2021/07/23 03:47:17;;;;;;;10.93;4.17;;;;;;;17.62;84.02;100781.22;1731334;81;20914;-59
2021/07/23 03:49:45;;;;;;;10.88;4.55;;;;;;;17.67;83.47;100784.49;1778167;78;20929;-59
2021/07/23 03:52:13;;;;;;;8.25;4.17;;;;;;;17.75;83.24;100787.56;1780065;79;21492;-59
2021/07/23 03:54:42;;;;;;;7.30;4.33;;;;;;;17.84;82.31;100798.30;1780019;79;20894;-59
2021/07/23 03:57:09;;;;;;;11.88;4.35;;;;;;;17.94;82.03;100783.66;1784885;79;21506;-59
2021/07/23 03:59:37;;;;;;;7.90;4.05;;;;;;;18.07;81.37;100786.97;1770136;79;20940;-59
2021/07/23 04:02:04;;;;;;;7.35;3.58;;;;;;;18.20;80.53;100783.80;1784439;79;20922;-59
2021/07/23 04:04:32;;;;;;;10.03;4.10;;;;;;;18.31;79.02;100786.68;1777740;79;21313;-59
2021/07/23 04:06:59;;;;;;;6.75;3.95;;;;;;;18.37;78.66;100787.23;1787331;79;21083;-59
2021/07/23 04:09:27;;;;;;;7.97;4.10;;;;;;;18.48;77.80;100783.32;1790269;78;20937;-58
2021/07/23 04:11:56;;;;;;;6.53;3.37;;;;;;;18.59;77.34;100787.52;1783467;79;20863;-59
2021/07/23 04:14:25;;;;;;;14.20;4.17;;;;;;;18.69;76.75;100789.61;1781761;79;20960;-59
2021/07/23 04:16:53;;;;;;;7.92;3.90;;;;;;;18.78;76.64;100779.46;1776569;78;21373;-58
2021/07/23 04:19:21;;;;;;;13.78;4.67;;;;;;;18.91;76.36;100786.27;1770253;79;21098;-59
2021/07/23 04:21:56;;;;;;;;;;;;;;;19.01;75.49;100783.81;1781551;79;20901;-59
2021/07/23 04:24:31;;;;;;;16.35;4.10;;;;;;;19.11;75.41;100785.39;1782163;79;20433;-59
2021/07/23 04:26:58;;;;;;;11.50;4.00;;;;;;;19.20;74.79;100782.52;1777030;79;20933;-59
2021/07/23 04:29:26;;;;;;;12.10;4.08;;;;;;;19.29;73.92;100777.77;1774650;79;20903;-59
2021/07/23 04:31:53;;;;;;;14.93;4.60;;;;;;;19.39;74.02;100774.78;1729835;80;21343;-59
2021/07/23 04:34:20;;;;;;;16.17;4.90;;;;;;;19.48;74.00;100778.69;1712406;82;20977;-59
2021/07/23 04:36:49;;;;;;;15.70;4.92;;;;;;;19.55;73.68;100777.73;1725598;82;21264;-59
2021/07/23 04:39:30;;;;;;;11.30;4.22;;;;;;;19.60;73.21;100781.86;1742626;80;21237;-60
2021/07/23 04:41:59;;;;;;;14.85;4.67;;;;;;;19.67;73.29;100775.96;1742626;80;20918;-59
2021/07/23 04:44:30;;;;;;;10.72;4.65;;;;;;;19.79;73.34;100779.66;1726106;81;21703;-59
2021/07/23 04:47:01;;;;;;;20.02;4.70;;;;;;;19.88;72.63;100778.97;1734970;81;21386;-60
2021/07/23 04:49:29;;;;;;;11.00;5.17;;;;;;;19.98;72.57;100782.77;1724189;81;20898;-59
2021/07/23 04:51:58;;;;;;;16.73;4.80;;;;;;;20.11;72.24;100783.22;1783036;79;20870;-60
2021/07/23 04:54:43;;;;;;;14.47;5.28;;;;;;;20.23;71.65;100782.78;1778821;79;20992;-59
2021/07/23 04:57:29;;;;;;;16.20;5.50;;;;;;;20.35;71.25;100786.43;1774624;79;21069;-59
2021/07/23 04:59:57;;;;;;;22.77;5.50;;;;;;;20.49;71.18;100782.17;1786618;79;20939;-58
2021/07/23 05:02:24;;;;;;;14.85;4.97;;;;;;;20.66;70.78;100782.70;1790518;79;21497;-59
2021/07/23 05:04:51;;;;;;;13.45;4.92;;;;;;;20.83;70.24;100786.90;1783441;79;20948;-60
2021/07/23 05:07:18;;;;;;;11.50;4.70;;;;;;;20.97;69.62;100789.90;1733227;81;21412;-59
2021/07/23 05:09:45;;;;;;;10.60;4.70;;;;;;;21.08;69.22;100793.14;1739948;80;21071;-59
2021/07/23 05:12:12;;;;;;;13.85;5.20;;;;;;;21.20;68.89;100792.15;1731393;80;20910;-58
2021/07/23 05:14:40;;;;;;;9.10;4.60;;;;;;;21.32;68.29;100793.03;1730981;82;20874;-58
2021/07/23 05:17:07;;;;;;;8.50;4.22;;;;;;;21.46;67.25;100792.80;1736106;81;21423;-58
2021/07/23 05:19:35;;;;;;;13.20;4.33;;;;;;;21.55;65.99;100795.76;1744681;81;21344;-59
2021/07/23 05:22:02;;;;;;;14.50;4.75;;;;;;;21.65;65.72;100791.34;1743964;81;21809;-60
2021/07/23 05:24:30;;;;;;;9.10;4.25;;;;;;;21.75;64.66;100792.82;1714493;82;21454;-59
2021/07/23 05:26:59;;;;;;;13.30;4.58;;;;;;;21.83;64.10;100792.20;1710665;82;20898;-58
2021/07/23 05:29:25;;;;;;;11.33;4.03;;;;;;;21.86;63.49;100790.58;1725474;80;21004;-59
2021/07/23 05:31:52;;;;;;;12.05;4.58;;;;;;;21.97;63.44;100795.14;1723114;80;20957;-58
2021/07/23 05:34:20;;;;;;;9.45;4.50;;;;;;;22.11;62.34;100788.53;1713038;82;21059;-59
2021/07/23 05:36:49;;;;;;;8.78;3.80;;;;;;;22.22;61.44;100795.34;1730396;82;21063;-58
2021/07/23 05:39:16;;;;;;;12.58;4.25;;;;;;;22.31;60.34;100793.19;1711561;82;21529;-59
2021/07/23 05:41:43;;;;;;;9.15;4.10;;;;;;;22.40;60.08;100797.00;1740982;80;21055;-59
2021/07/23 05:44:10;;;;;;;13.88;4.35;;;;;;;22.50;59.53;100806.69;1723990;81;21081;-60
2021/07/23 05:46:37;;;;;;;15.05;4.00;;;;;;;22.51;59.80;100801.59;1738414;81;21346;-58
2021/07/23 05:49:05;;;;;;;10.65;4.40;;;;;;;22.58;59.81;100810.98;1732720;81;21013;-58
2021/07/23 05:51:33;;;;;;;11.97;3.87;;;;;;;22.68;58.27;100807.48;1744128;80;21525;-59
2021/07/23 05:54:00;;;;;;;11.78;4.28;;;;;;;22.71;58.45;100807.22;1736078;81;21427;-59
2021/07/23 05:56:28;;;;;;;15.43;4.25;;;;;;;22.74;59.36;100805.06;1744813;81;21000;-58
2021/07/23 05:58:55;;;;;;;11.73;3.70;;;;;;;22.85;58.55;100805.51;1751894;80;21115;-58
2021/07/23 06:01:22;;;;;;;8.23;3.67;;;;;;;22.94;57.03;100804.36;1742592;80;21380;-58
2021/07/23 06:03:49;;;;;;;9.25;3.83;;;;;;;23.01;56.99;100805.06;1713951;82;21408;-59
2021/07/23 06:06:16;;;;;;;9.73;4.05;;;;;;;23.09;57.33;100808.47;1727009;82;21555;-58
2021/07/23 06:08:44;;;;;;;10.35;3.92;;;;;;;23.15;55.86;100806.59;1730152;82;21465;-59
2021/07/23 06:11:11;;;;;;;13.05;3.90;;;;;;;23.18;56.44;100806.80;1751047;80;21069;-58
2021/07/23 06:13:39;;;;;;;11.97;3.35;;;;;;;23.30;56.01;100808.98;1721126;81;21391;-60
2021/07/23 06:16:09;;;;;;;7.95;3.60;;;;;;;23.42;54.91;100810.64;1728635;82;21400;-59
2021/07/23 06:18:36;;;;;;;8.43;3.10;;;;;;;23.51;54.48;100819.02;1741092;80;20902;-60
2021/07/23 06:21:03;;;;;;;12.15;3.22;;;;;;;23.56;54.17;100807.19;1744465;80;20970;-60
2021/07/23 06:23:30;;;;;;;10.70;3.40;;;;;;;23.63;53.96;100812.95;1730163;81;20906;-59
2021/07/23 06:25:57;;;;;;;15.50;3.55;;;;;;;23.71;54.44;100805.79;1717207;82;20934;-58
2021/07/23 06:28:24;;;;;;;6.33;3.02;;;;;;;23.78;53.82;100800.63;1747328;80;20925;-59
2021/07/23 06:30:53;;;;;;;14.28;3.72;;;;;;;23.85;53.54;100805.05;1746586;80;21709;-60
2021/07/23 06:33:20;;;;;;;13.15;3.98;;;;;;;23.96;52.80;100810.40;1716969;80;20966;-60
2021/07/23 06:35:47;;;;;;;15.45;3.65;;;;;;;24.08;53.08;100807.59;1716302;82;21443;-59
2021/07/23 06:38:14;;;;;;;18.85;3.62;;;;;;;24.12;53.00;100810.41;1744649;80;20937;-59
2021/07/23 06:40:41;;;;;;;32.70;5.60;;;;;;;24.19;51.76;100804.71;1746502;80;20922;-59
2021/07/23 06:43:08;;;;;;;23.12;4.20;;;;;;;24.21;51.77;100802.73;1719391;80;20935;-59
2021/07/23 06:45:35;;;;;;;15.60;2.98;;;;;;;24.25;51.88;100800.06;1708286;81;20987;-59
2021/07/23 06:48:03;;;;;;;17.15;3.20;;;;;;;24.33;51.42;100795.24;1742685;80;21840;-59
2021/07/23 06:50:32;;;;;;;11.88;2.90;;;;;;;24.43;51.04;100804.84;1730454;80;21495;-59
2021/07/23 06:53:02;;;;;;;13.15;2.70;;;;;;;24.50;50.13;100808.73;1726076;80;21030;-59
2021/07/23 06:55:30;;;;;;;6.55;2.85;;;;;;;24.54;49.73;100802.47;1727504;82;20880;-59
2021/07/23 06:57:59;;;;;;;6.83;2.80;;;;;;;24.58;49.77;100803.37;1746027;80;21506;-59
2021/07/23 07:00:26;;;;;;;12.18;2.75;;;;;;;24.62;50.01;100809.45;1723972;80;21047;-59
2021/07/23 07:02:57;;;;;;;16.82;2.98;;;;;;;24.70;49.93;100801.88;1724136;80;20880;-62
2021/07/23 07:05:24;;;;;;;9.70;2.47;;;;;;;24.75;49.70;100815.52;1744188;80;20935;-60
2021/07/23 07:07:51;;;;;;;7.92;2.40;;;;;;;24.75;48.70;100811.92;1745548;80;21082;-60
2021/07/23 07:10:18;;;;;;;28.30;3.27;;;;;;;24.72;47.30;100801.22;1746310;81;20965;-60
2021/07/23 07:12:45;;;;;;;14.53;2.45;;;;;;;24.67;46.36;100811.77;1747243;80;21811;-61
2021/07/23 07:15:14;;;;;;;33.63;3.67;;;;;;;24.67;46.10;100817.25;1714132;82;20942;-61
2021/07/23 07:17:41;;;;;;;16.23;2.27;;;;;;;24.60;46.59;100806.84;1743828;80;21099;-60
2021/07/23 07:20:09;;;;;;;10.35;2.08;;;;;;;24.57;45.48;100820.84;1720243;80;21131;-59
2021/07/23 07:22:36;;;;;;;12.37;2.40;;;;;;;24.58;45.07;100814.34;1719962;80;21414;-61
2021/07/23 07:25:07;;;;;;;21.62;2.92;;;;;;;24.64;46.14;100803.80;1719738;80;21561;-61
2021/07/23 07:27:33;;;;;;;21.25;2.80;;;;;;;24.71;45.95;100815.94;1728497;80;21443;-59
2021/07/23 07:30:00;;;;;;;23.35;3.33;;;;;;;24.71;45.74;100807.72;1735657;80;21423;-61
2021/07/23 07:32:27;;;;;;;33.55;4.42;;;;;;;24.68;44.34;100809.38;1724940;80;20969;-61
2021/07/23 07:34:54;;;;;;;41.50;4.25;;;;;;;24.68;40.81;100813.49;1721499;80;21367;-61
2021/07/23 07:37:21;;;;;;;14.83;2.98;;;;;;;24.73;41.01;100813.92;1742399;80;21377;-60
2021/07/23 07:39:50;;;;;;;5.92;1.90;;;;;;;24.81;41.95;100823.67;1745184;80;20910;-60
2021/07/23 07:42:17;;;;;;;5.62;2.30;;;;;;;24.79;42.62;100814.73;1712493;82;20957;-60
2021/07/23 07:44:46;;;;;;;8.78;2.40;;;;;;;24.72;43.39;100816.30;1745858;80;21511;-60
2021/07/23 07:47:13;;;;;;;11.40;2.55;;;;;;;24.74;43.73;100804.68;1743107;80;20993;-60
2021/07/23 07:52:08;;;;;;;7.78;1.80;;;;;;;24.88;42.45;100807.51;1681438;83;21476;-60
2021/07/23 07:54:38;;;;;;;8.30;1.95;;;;;;;24.93;40.77;100807.92;1725929;80;21016;-60
2021/07/23 07:57:07;;;;;;;3.77;1.92;;;;;;;25.07;41.31;100804.38;1688399;83;21322;-59
2021/07/23 07:59:34;;;;;;;28.90;3.50;;;;;;;25.13;40.45;100809.27;1715319;81;20929;-60
2021/07/23 08:02:01;;;;;;;13.22;2.42;;;;;;;25.12;40.62;100826.25;1752696;80;21837;-61
2021/07/23 08:04:29;;;;;;;12.78;2.17;;;;;;;25.13;40.16;100814.75;1710927;81;21411;-60
2021/07/23 08:06:57;;;;;;;12.85;2.65;;;;;;;25.13;40.50;100811.52;1686878;83;20966;-60
2021/07/23 08:09:35;;;;;;;13.53;2.40;;;;;;;25.21;41.17;100808.53;1753557;80;20931;-61
2021/07/23 08:11:57;;;;;;;23.07;3.62;;;;;;;25.33;41.49;100801.86;1713198;81;20995;-60
2021/07/23 08:14:25;;;;;;;18.87;2.70;;;;;;;25.29;41.04;100806.77;1684539;83;21101;-60
2021/07/23 08:16:54;;;;;;;6.85;1.87;;;;;;;25.23;41.28;100810.13;1739944;80;21042;-60
2021/07/23 08:19:21;;;;;;;9.23;2.10;;;;;;;25.16;41.63;100798.88;1740926;80;22266;-60
2021/07/23 08:21:49;;;;;;;6.25;1.95;;;;;;;25.17;42.62;100807.45;1740458;80;21519;-59
2021/07/23 08:27:04;;;;;;;4.30;2.05;;;;;;;25.38;40.73;100807.77;1747261;80;21851;-62
2021/07/23 08:29:31;;;;;;;6.03;1.50;;;;;;;25.50;41.29;100805.72;1750592;80;21529;-64
2021/07/23 08:32:11;;;;;;;7.97;1.77;;;;;;;25.51;37.57;100818.43;1744910;80;20940;-62
2021/07/23 08:34:39;;;;;;;6.30;1.40;;;;;;;25.42;38.17;100806.44;1749001;80;20963;-62
2021/07/23 08:37:07;;;;;;;6.92;1.70;;;;;;;25.46;38.08;100813.35;1744312;80;20989;-62
2021/07/23 08:39:35;;;;;;;5.25;1.55;;;;;;;25.56;37.91;100813.34;1746625;80;21703;-60
2021/07/23 08:42:25;;;;;;;7.00;1.50;;;;;;;25.61;37.36;100804.67;1747490;80;21447;-63
2021/07/23 08:44:54;;;;;;;8.50;1.72;;;;;;;25.67;37.80;100803.20;1749413;80;20933;-60
2021/07/23 08:47:21;;;;;;;9.68;1.67;;;;;;;25.78;37.52;100818.62;1747019;80;20910;-62
2021/07/23 08:49:51;;;;;;;4.05;1.62;;;;;;;25.79;37.12;100813.48;1753713;80;20964;-60
2021/07/23 08:52:29;;;;;;;5.33;1.45;;;;;;;25.87;36.58;100806.70;1748941;80;22084;-62
2021/07/23 08:57:34;;;;;;;4.25;1.32;;;;;;;25.92;35.23;100815.34;1715278;81;21134;-60
2021/07/23 09:00:07;;;;;;;15.88;1.82;;;;;;;25.82;35.51;100809.05;1717238;81;21558;-60
2021/07/23 09:03:07;;;;;;;9.63;1.77;;;;;;;25.76;36.33;100802.80;1711761;81;21482;-60
2021/07/23 09:05:39;;;;;;;5.07;1.23;;;;;;;25.77;36.33;100814.14;1710666;81;21822;-59
2021/07/23 09:08:12;;;;;;;17.07;2.05;;;;;;;25.79;35.93;100794.26;1689455;83;20949;-60
2021/07/23 09:10:39;;;;;;;5.47;1.55;;;;;;;25.78;36.22;100808.48;1759575;80;21305;-62
2021/07/23 09:13:08;;;;;;;25.88;3.27;;;;;;;25.76;35.70;100801.44;1717911;81;20987;-62
2021/07/23 09:15:44;;;;;;;22.55;3.00;;;;;;;25.62;37.31;100809.14;1745689;80;21527;-63
2021/07/23 09:18:31;;;;;;;7.05;1.70;;;;;;;25.50;38.14;100806.22;1740902;80;21096;-61
2021/07/23 09:21:00;;;;;;;7.40;1.60;;;;;;;25.45;37.81;100803.39;1691290;82;21348;-60
2021/07/23 09:23:38;;;;;;;3.02;1.30;;;;;;;25.51;37.88;100790.11;1711183;81;21019;-60
2021/07/23 09:26:13;;;;;;;23.55;2.67;;;;;;;25.58;36.90;100785.77;1715505;81;21139;-61
2021/07/23 09:28:49;;;;;;;8.25;1.70;;;;;;;25.67;38.01;100790.33;1716848;81;21088;-59
2021/07/23 09:31:28;;;;;;;5.25;1.40;;;;;;;25.93;37.11;100787.39;1735458;80;21365;-59
2021/07/23 09:33:55;;;;;;;3.92;1.82;;;;;;;26.07;36.90;100785.47;1740105;80;21103;-60
2021/07/23 09:36:22;;;;;;;8.55;1.70;;;;;;;26.06;36.73;100788.39;1713920;81;21067;-60
2021/07/23 09:39:05;;;;;;;5.85;1.60;;;;;;;25.96;36.53;100791.19;1712541;81;21752;-60
2021/07/23 09:41:33;;;;;;;14.30;1.70;;;;;;;25.85;36.04;100790.89;1669042;83;20973;-61
2021/07/23 09:44:08;;;;;;;5.90;1.70;;;;;;;25.74;36.81;100783.20;1687142;83;21100;-60
2021/07/23 09:46:44;;;;;;;7.12;1.57;;;;;;;25.79;36.13;100795.11;1710493;81;20970;-61
2021/07/23 09:49:28;;;;;;;9.98;1.77;;;;;;;25.79;35.51;100787.39;1710461;81;20925;-61
2021/07/23 09:51:57;;;;;;;6.30;1.87;;;;;;;25.79;35.89;100780.00;1707729;81;20926;-61
2021/07/23 09:54:24;;;;;;;14.33;2.60;;;;;;;25.90;36.21;100784.42;1737641;80;21356;-61
2021/07/23 09:56:51;;;;;;;10.10;1.52;;;;;;;25.92;36.22;100785.66;1735702;80;21104;-62
2021/07/23 09:59:59;;;;;;;4.65;1.45;;;;;;;25.83;35.70;100791.56;1734639;80;20958;-61
2021/07/23 10:02:27;;;;;;;8.40;1.60;;;;;;;25.77;36.16;100795.77;1728213;80;21612;-61
2021/07/23 10:05:07;;;;;;;2.00;1.40;;;;;;;25.83;36.23;100783.32;1729990;80;21107;-61
2021/07/23 10:07:40;;;;;;;9.60;1.70;;;;;;;25.93;36.25;100771.75;1737845;80;21036;-61
2021/07/23 10:10:13;;;;;;;6.50;1.80;;;;;;;26.03;35.74;100792.30;1740651;80;21115;-60
2021/07/23 10:12:42;;;;;;;5.55;1.50;;;;;;;26.18;35.37;100777.54;1739816;80;20886;-61
2021/07/23 10:15:11;;;;;;;7.47;1.55;;;;;;;26.28;35.14;100770.60;1747296;80;21352;-61
2021/07/23 10:17:38;;;;;;;11.38;1.55;;;;;;;26.28;35.33;100774.23;1742022;81;20936;-60
2021/07/23 10:20:06;;;;;;;3.02;1.90;;;;;;;26.20;35.35;100801.63;1740950;80;21493;-63
2021/07/23 10:22:34;;;;;;;14.13;1.75;;;;;;;26.01;35.97;100775.11;1745649;80;21395;-61
2021/07/23 10:25:01;;;;;;;5.75;1.62;;;;;;;25.91;37.03;100760.59;1745560;80;20862;-62
2021/07/23 10:27:29;;;;;;;7.42;1.90;;;;;;;26.03;35.80;100786.30;1750387;80;20909;-60
2021/07/23 10:29:56;;;;;;;6.85;1.60;;;;;;;26.12;35.45;100769.41;1751185;80;20959;-62
2021/07/23 10:32:34;;;;;;;6.40;1.40;;;;;;;26.22;35.33;100765.74;1750030;80;21390;-61
2021/07/23 10:35:19;;;;;;;10.10;1.70;;;;;;;26.31;35.22;100764.82;1737829;80;21473;-61
2021/07/23 10:41:28;;;;;;;7.42;1.57;;;;;;;26.45;36.32;100767.52;1626665;85;21922;-62
2021/07/23 10:43:55;;;;;;;4.30;1.35;;;;;;;26.59;35.95;100764.19;1638058;85;20926;-59
2021/07/23 10:46:50;;;;;;;2.77;1.30;;;;;;;26.70;36.47;100755.36;1636785;85;21009;-61
2021/07/23 10:49:35;;;;;;;4.15;1.45;;;;;;;26.74;35.87;100756.75;1639498;85;21893;-59
2021/07/23 10:54:34;;;;;;;2.02;1.60;;;;;;;26.72;35.59;100748.66;1802167;77;20981;-60
2021/07/23 10:57:09;;;;;;;5.83;1.50;;;;;;;26.68;35.11;100749.16;1808147;77;20955;-62
2021/07/23 10:59:44;;;;;;;2.87;1.60;;;;;;;26.62;35.70;100756.15;1811983;77;21352;-63
2021/07/23 11:02:18;;;;;;;3.77;1.70;;;;;;;26.68;35.25;100746.41;1817425;77;21077;-60
2021/07/23 11:04:46;;;;;;;3.98;1.50;;;;;;;26.74;35.06;100744.38;1778379;78;28023;-62
2021/07/23 11:07:15;;;;;;;7.12;1.70;;;;;;;26.76;35.42;100746.45;1779598;78;20944;-62
2021/07/23 11:09:44;;;;;;;4.35;1.60;;;;;;;26.81;35.22;100748.73;1773582;78;20991;-61
2021/07/23 11:14:59;;;;;;;18.90;1.60;;;;;;;26.71;34.69;100736.45;1791704;78;21509;-63
2021/07/23 11:17:30;;;;;;;7.42;2.00;;;;;;;26.65;35.08;100747.58;1783200;78;20885;-61
2021/07/23 11:19:59;;;;;;;8.33;1.77;;;;;;;26.63;35.58;100733.62;1774834;80;20941;-62
2021/07/23 11:22:36;;;;;;;7.95;1.67;;;;;;;26.67;36.32;100739.19;1813475;77;20956;-60
2021/07/23 11:25:06;;;;;;;6.90;1.52;;;;;;;26.72;35.50;100731.31;1810765;77;21065;-60
2021/07/23 11:27:37;;;;;;;4.85;1.50;;;;;;;26.67;35.06;100744.68;1812523;77;21687;-61
2021/07/23 11:30:17;;;;;;;8.58;1.75;;;;;;;26.61;35.39;100737.93;1802066;77;21459;-61
2021/07/23 11:32:55;;;;;;;2.98;1.47;;;;;;;26.56;35.36;100739.77;1812757;77;21405;-61
2021/07/23 11:35:28;;;;;;;12.07;1.70;;;;;;;26.41;35.67;100735.36;1780421;78;21422;-60
2021/07/23 11:37:57;;;;;;;4.67;1.80;;;;;;;26.37;35.07;100722.08;1780479;79;20941;-60
2021/07/23 11:40:24;;;;;;;7.25;1.50;;;;;;;26.35;35.48;100729.13;1780885;78;21782;-60
2021/07/23 11:42:55;;;;;;;5.90;1.70;;;;;;;26.39;35.66;100720.03;1777480;78;20958;-61
2021/07/23 11:45:36;;;;;;;6.40;1.52;;;;;;;26.49;36.32;100713.95;1740481;80;20928;-61
2021/07/23 11:48:13;;;;;;;6.53;1.60;;;;;;;26.59;35.78;100717.45;1789089;78;20889;-61
2021/07/23 11:50:55;;;;;;;4.05;1.60;;;;;;;26.58;35.14;100723.13;1817867;77;20896;-60